Time;durP1;ratioP1;P1;durP2;ratioP2;P2;SDS_P1;SDS_P2;PMS_P1;PMS_P2;Temp;Humidity;BMP_temperature;BMP_pressure;BME280_temperature;BME280_humidity;BME280_pressure;Samples;Min_cycle;Max_cycle;Signal;HPM_P1;HPM_P2
2023/05/24 00:00:59;;;;;;;9.20;3.20;;;;;;;6.74;95.80;101117.19;4974433;28;20629;-77
2023/05/24 00:03:25;;;;;;;13.77;3.77;;;;;;;6.70;96.27;101118.00;4973736;28;20294;-77
2023/05/24 00:05:51;;;;;;;8.73;2.87;;;;;;;6.72;95.54;101125.81;4972975;28;20232;-77
2023/05/24 00:08:18;;;;;;;8.83;3.37;;;;;;;6.75;95.41;101141.38;4974180;28;20205;-78
2023/05/24 00:10:45;;;;;;;7.37;2.90;;;;;;;6.68;95.92;101140.47;4974611;28;20271;-78
2023/05/24 00:13:11;;;;;;;10.73;3.20;;;;;;;6.71;95.22;101131.84;4977300;28;20622;-78
2023/05/24 00:15:38;;;;;;;6.87;3.03;;;;;;;6.77;97.00;101116.31;4978797;28;20235;-77
2023/05/24 00:18:04;;;;;;;9.10;3.00;;;;;;;6.81;98.00;101112.03;4978663;28;20207;-78
2023/05/24 00:20:31;;;;;;;9.60;3.10;;;;;;;6.79;97.19;101105.97;4978607;28;20221;-78
2023/05/24 00:22:57;;;;;;;12.63;3.90;;;;;;;6.80;96.40;101103.38;4978266;28;20337;-78
2023/05/24 00:25:24;;;;;;;4.83;2.77;;;;;;;6.81;95.85;101119.81;4978332;28;20251;-78
2023/05/24 00:27:51;;;;;;;11.10;3.57;;;;;;;6.86;94.72;101133.72;4978007;28;20217;-77
2023/05/24 00:30:18;;;;;;;9.47;2.97;;;;;;;6.89;95.16;101147.56;4976768;28;20308;-77
2023/05/24 00:32:44;;;;;;;9.63;3.60;;;;;;;6.80;95.57;101137.13;4976640;28;20737;-77
2023/05/24 00:35:10;;;;;;;11.07;3.27;;;;;;;6.76;96.21;101132.78;4976210;28;20583;-77
2023/05/24 00:37:40;;;;;;;9.57;2.90;;;;;;;6.79;96.26;101124.13;4976342;28;20243;-77
2023/05/24 00:40:08;;;;;;;10.13;3.50;;;;;;;6.74;96.58;101116.31;4977667;28;20228;-77
2023/05/24 00:42:35;;;;;;;11.90;4.70;;;;;;;6.72;97.42;101107.66;4977934;28;20225;-77
2023/05/24 00:45:02;;;;;;;10.63;3.77;;;;;;;6.82;97.30;101095.59;4978292;28;20232;-78
2023/05/24 00:47:29;;;;;;;10.37;3.60;;;;;;;6.87;97.25;101091.31;4978017;28;20213;-77
2023/05/24 00:49:56;;;;;;;10.80;3.23;;;;;;;6.97;97.65;101093.97;4978149;28;20268;-78
2023/05/24 00:52:22;;;;;;;8.90;3.43;;;;;;;7.09;96.76;101093.19;4978375;28;20678;-78
2023/05/24 00:54:49;;;;;;;10.63;3.63;;;;;;;6.96;96.10;101104.38;4978519;28;20256;-77
2023/05/24 00:57:17;;;;;;;6.90;3.33;;;;;;;6.96;96.58;101104.38;4978118;28;20238;-78
2023/05/24 00:59:44;;;;;;;10.80;4.00;;;;;;;6.89;97.97;101090.47;4978728;28;20233;-78
2023/05/24 01:02:12;;;;;;;11.07;3.57;;;;;;;6.89;98.06;101087.00;4978196;28;20212;-78
2023/05/24 01:04:38;;;;;;;13.80;4.00;;;;;;;6.94;98.99;101070.59;4977829;28;20264;-77
2023/05/24 01:07:13;;;;;;;13.50;4.57;;;;;;;6.90;98.19;101068.84;4977914;28;20200;-78
2023/05/24 01:09:52;;;;;;;12.90;3.57;;;;;;;7.00;99.03;101068.88;4978115;28;20232;-78
2023/05/24 01:12:28;;;;;;;8.33;3.67;;;;;;;6.94;98.55;101067.16;4978726;28;20243;-78
2023/05/24 01:15:04;;;;;;;16.43;4.13;;;;;;;7.06;99.23;101058.56;4978895;28;20208;-78
2023/05/24 01:17:41;;;;;;;8.37;3.57;;;;;;;7.06;97.22;101069.81;4978005;28;20204;-77
2023/05/24 01:20:12;;;;;;;12.07;4.00;;;;;;;6.93;97.85;101078.38;4979035;28;20721;-76
2023/05/24 01:22:52;;;;;;;11.33;3.80;;;;;;;6.94;99.08;101060.22;4979328;28;20204;-78
2023/05/24 01:25:28;;;;;;;8.00;3.30;;;;;;;7.02;98.28;101062.00;4978238;28;20308;-78
2023/05/24 01:27:57;;;;;;;13.37;4.73;;;;;;;7.12;98.50;101062.06;4978715;28;20605;-78
2023/05/24 01:30:26;;;;;;;18.23;3.97;;;;;;;7.13;97.68;101068.09;4978331;28;20283;-77
2023/05/24 01:32:53;;;;;;;12.10;3.87;;;;;;;6.99;97.77;101065.44;4975855;28;20268;-77
2023/05/24 01:35:19;;;;;;;9.97;3.63;;;;;;;7.03;98.20;101062.00;4975733;28;20275;-77
2023/05/24 01:37:46;;;;;;;11.33;3.77;;;;;;;6.99;98.75;101057.66;4975581;28;20298;-77
2023/05/24 01:40:13;;;;;;;13.57;4.57;;;;;;;6.98;98.49;101050.72;4975715;28;20251;-77
2023/05/24 01:42:48;;;;;;;14.13;5.03;;;;;;;7.00;99.87;101050.72;4975598;28;20247;-77
2023/05/24 01:45:19;;;;;;;10.03;4.70;;;;;;;7.03;99.85;101042.97;4975093;28;20236;-77
2023/05/24 01:47:58;;;;;;;12.63;3.93;;;;;;;7.05;99.55;101036.06;4975375;28;20272;-77
2023/05/24 01:50:27;;;;;;;10.80;3.80;;;;;;;7.15;99.71;101035.22;4975655;28;20284;-77
2023/05/24 01:52:58;;;;;;;13.03;3.70;;;;;;;7.09;98.79;101041.25;4975585;28;20211;-77
2023/05/24 01:55:27;;;;;;;18.87;4.13;;;;;;;7.09;99.50;101041.25;4975234;28;20208;-77
2023/05/24 01:57:58;;;;;;;16.23;4.27;;;;;;;7.04;99.32;101040.38;4975509;28;20243;-77
2023/05/24 02:00:26;;;;;;;9.77;4.53;;;;;;;7.02;100.00;101034.31;4975303;28;20256;-77
2023/05/24 02:02:53;;;;;;;12.53;3.83;;;;;;;7.09;100.00;101017.91;4975100;28;20246;-77
2023/05/24 02:05:19;;;;;;;13.87;3.73;;;;;;;7.05;100.00;101017.88;4974988;28;20669;-77
2023/05/24 02:07:45;;;;;;;10.27;5.50;;;;;;;7.06;100.00;101001.47;4975078;28;20252;-77
2023/05/24 02:10:12;;;;;;;14.07;4.77;;;;;;;7.03;100.00;100989.31;4974637;28;20241;-78
2023/05/24 02:12:38;;;;;;;12.10;5.33;;;;;;;7.06;100.00;100972.91;4975006;28;20244;-77
2023/05/24 02:15:05;;;;;;;13.00;5.50;;;;;;;7.01;100.00;100965.09;4974829;28;20273;-77
2023/05/24 02:17:34;;;;;;;11.03;4.10;;;;;;;7.01;100.00;100944.31;4974536;28;20216;-77
2023/05/24 02:20:01;;;;;;;12.80;5.03;;;;;;;6.98;100.00;100949.50;4974739;28;20222;-77
2023/05/24 02:22:27;;;;;;;18.23;6.03;;;;;;;6.97;100.00;100945.16;4974690;28;20718;-77
2023/05/24 02:24:54;;;;;;;15.60;5.27;;;;;;;6.89;100.00;100939.94;4974535;28;20333;-77
2023/05/24 02:27:20;;;;;;;14.27;4.93;;;;;;;6.90;100.00;100933.91;4974134;28;20684;-77
2023/05/24 02:29:47;;;;;;;23.30;5.13;;;;;;;6.90;100.00;100933.06;4974374;28;20295;-77
2023/05/24 02:32:13;;;;;;;13.73;4.97;;;;;;;6.75;100.00;100919.13;4974530;28;20220;-77
2023/05/24 02:34:42;;;;;;;14.60;4.83;;;;;;;6.72;100.00;100911.34;4973763;28;20220;-77
2023/05/24 02:37:12;;;;;;;18.73;5.53;;;;;;;6.67;100.00;100900.06;4974016;28;20218;-77
2023/05/24 02:39:39;;;;;;;24.40;7.50;;;;;;;6.61;100.00;100899.19;4974804;28;20232;-77
2023/05/24 02:42:07;;;;;;;18.10;5.37;;;;;;;6.58;100.00;100889.66;4974602;28;20244;-77
2023/05/24 02:44:33;;;;;;;15.50;5.87;;;;;;;6.57;100.00;100883.59;4974095;28;20208;-77
2023/05/24 02:47:00;;;;;;;22.07;5.07;;;;;;;6.51;100.00;100873.19;4973844;28;20235;-77
2023/05/24 02:49:26;;;;;;;16.10;5.23;;;;;;;6.49;100.00;100874.91;4974235;28;20234;-77
2023/05/24 02:51:54;;;;;;;13.73;5.67;;;;;;;6.41;100.00;100868.81;4973972;28;20268;-77
2023/05/24 02:54:20;;;;;;;11.93;6.07;;;;;;;6.39;100.00;100864.50;4974247;28;20781;-77
2023/05/24 02:56:46;;;;;;;29.13;7.27;;;;;;;6.37;100.00;100859.31;4973855;28;20235;-77
2023/05/24 02:59:13;;;;;;;20.10;5.03;;;;;;;6.33;100.00;100858.41;4974094;28;20231;-77
2023/05/24 03:01:39;;;;;;;27.27;5.50;;;;;;;6.39;100.00;100859.31;4973903;28;20209;-77
2023/05/24 03:04:05;;;;;;;17.40;5.57;;;;;;;6.32;100.00;100858.41;4973844;28;20687;-77
2023/05/24 03:06:32;;;;;;;23.87;6.17;;;;;;;6.30;100.00;100865.31;4973572;28;20276;-77
2023/05/24 03:09:00;;;;;;;14.83;5.50;;;;;;;6.39;100.00;100867.94;4973925;28;20223;-77
2023/05/24 03:11:26;;;;;;;13.33;5.17;;;;;;;6.41;100.00;100875.75;4974092;28;20270;-77
2023/05/24 03:13:52;;;;;;;19.10;5.70;;;;;;;6.42;100.00;100875.75;4973741;28;20628;-77
2023/05/24 03:16:19;;;;;;;13.27;5.83;;;;;;;6.52;100.00;100877.53;4973233;28;20248;-77
2023/05/24 03:18:46;;;;;;;14.60;5.07;;;;;;;6.63;100.00;100881.91;4974171;28;20219;-77
2023/05/24 03:21:12;;;;;;;16.03;5.27;;;;;;;6.68;100.00;100893.16;4973765;28;20753;-77
2023/05/24 03:23:39;;;;;;;17.17;5.90;;;;;;;6.66;100.00;100897.47;4973959;28;20239;-77
2023/05/24 03:26:07;;;;;;;22.60;6.87;;;;;;;6.66;100.00;100903.53;4973693;28;20304;-77
2023/05/24 03:28:34;;;;;;;13.50;4.50;;;;;;;6.81;100.00;100907.91;4973964;28;20211;-77
2023/05/24 03:31:00;;;;;;;14.77;5.13;;;;;;;6.76;100.00;100917.41;4973709;28;20239;-77
2023/05/24 03:33:27;;;;;;;28.53;6.87;;;;;;;6.78;100.00;100912.22;4973543;28;20243;-77
2023/05/24 03:35:53;;;;;;;14.57;5.57;;;;;;;6.68;100.00;100912.19;4973373;28;20335;-78
2023/05/24 03:38:19;;;;;;;16.80;6.00;;;;;;;6.63;100.00;100913.03;4974166;28;20248;-77
2023/05/24 03:40:46;;;;;;;21.73;5.23;;;;;;;6.63;100.00;100903.50;4973198;28;20794;-77
2023/05/24 03:43:14;;;;;;;24.33;7.33;;;;;;;6.56;100.00;100897.44;4973532;28;20240;-77
2023/05/24 03:45:40;;;;;;;15.30;6.30;;;;;;;6.58;100.00;100897.44;4964943;28;20217;-76
2023/05/24 03:48:07;;;;;;;18.83;6.07;;;;;;;6.65;100.00;100886.22;4973318;28;20284;-77
2023/05/24 03:50:33;;;;;;;16.17;5.63;;;;;;;6.73;100.00;100896.63;4973696;28;20236;-77
2023/05/24 03:52:59;;;;;;;16.73;6.23;;;;;;;6.73;100.00;100897.50;4973678;28;20264;-77
2023/05/24 03:55:26;;;;;;;13.10;4.57;;;;;;;6.83;100.00;100906.19;4973540;28;20241;-77
2023/05/24 03:57:52;;;;;;;15.93;5.33;;;;;;;6.97;100.00;100911.44;4973587;28;20242;-77
2023/05/24 04:00:20;;;;;;;22.13;6.67;;;;;;;6.96;100.00;100918.34;4973883;28;20303;-77
2023/05/24 04:02:47;;;;;;;16.57;5.80;;;;;;;6.85;100.00;100932.16;4973813;28;20211;-78
2023/05/24 04:05:13;;;;;;;14.77;5.77;;;;;;;6.94;100.00;100929.59;4973312;28;20264;-77
2023/05/24 04:07:40;;;;;;;18.20;6.27;;;;;;;7.08;100.00;100938.31;4973271;28;20213;-77
2023/05/24 04:10:08;;;;;;;22.97;6.10;;;;;;;7.22;100.00;100953.06;4973592;28;20228;-77
2023/05/24 04:12:34;;;;;;;15.57;6.07;;;;;;;7.25;100.00;100972.09;4973545;28;20236;-77
2023/05/24 04:15:01;;;;;;;16.50;5.90;;;;;;;7.24;100.00;100983.34;4972313;28;20286;-77
2023/05/24 04:17:33;;;;;;;16.13;6.33;;;;;;;7.23;100.00;100981.59;4973159;28;20210;-77
2023/05/24 04:19:59;;;;;;;15.63;7.30;;;;;;;7.20;100.00;100988.53;4973520;28;20353;-78
2023/05/24 04:22:26;;;;;;;21.47;5.63;;;;;;;7.24;100.00;100991.13;4973266;28;20230;-77
2023/05/24 04:24:52;;;;;;;24.03;6.53;;;;;;;7.31;100.00;100992.03;4973472;28;20858;-77
2023/05/24 04:27:19;;;;;;;14.27;5.70;;;;;;;7.20;100.00;101002.38;4972896;28;20760;-77
2023/05/24 04:29:48;;;;;;;21.67;6.10;;;;;;;7.23;100.00;100988.53;4994949;23;20266;-81
2023/05/24 04:32:15;;;;;;;19.17;5.93;;;;;;;7.30;100.00;100977.31;4995905;28;20232;-81
2023/05/24 04:34:42;;;;;;;14.00;5.73;;;;;;;7.33;100.00;100986.00;4995349;28;20238;-82
2023/05/24 04:37:09;;;;;;;17.50;6.10;;;;;;;7.35;100.00;100979.06;4996114;28;20240;-80
2023/05/24 04:39:35;;;;;;;17.27;5.97;;;;;;;7.37;100.00;100976.44;4996413;28;20244;-82
2023/05/24 04:42:02;;;;;;;14.40;5.37;;;;;;;7.40;100.00;100966.09;4995521;28;20209;-82
2023/05/24 04:44:28;;;;;;;15.63;5.10;;;;;;;7.49;100.00;100960.94;4995545;28;20659;-79
2023/05/24 04:46:55;;;;;;;24.43;7.83;;;;;;;7.59;100.00;100961.81;4995385;28;20248;-82
2023/05/24 04:49:21;;;;;;;22.50;5.83;;;;;;;7.67;100.00;100965.28;4995854;28;20262;-80
2023/05/24 04:51:49;;;;;;;17.80;5.80;;;;;;;7.68;100.00;100966.16;4995876;28;20270;-81
2023/05/24 04:54:16;;;;;;;17.37;5.70;;;;;;;7.82;100.00;100976.56;4995954;28;20287;-81
2023/05/24 04:56:43;;;;;;;10.03;5.70;;;;;;;7.82;100.00;100999.94;4996419;28;20252;-82
2023/05/24 04:59:09;;;;;;;18.53;5.53;;;;;;;8.01;100.00;101009.50;4998188;28;20217;-83
2023/05/24 05:01:36;;;;;;;20.23;5.40;;;;;;;8.14;100.00;101020.75;4999268;28;20252;-82
2023/05/24 05:04:03;;;;;;;18.17;5.93;;;;;;;8.15;100.00;101025.13;4998892;28;20212;-83
2023/05/24 05:06:30;;;;;;;24.77;8.00;;;;;;;8.24;100.00;101052.84;4999434;28;20583;-84
2023/05/24 05:08:58;;;;;;;25.63;6.30;;;;;;;8.22;100.00;101068.44;5000249;28;20792;-84
2023/05/24 05:11:24;;;;;;;16.50;6.23;;;;;;;8.38;100.00;101066.72;5000507;28;20236;-83
2023/05/24 05:13:51;;;;;;;21.63;7.23;;;;;;;8.51;100.00;101078.91;5000407;28;20205;-85
2023/05/24 05:16:17;;;;;;;15.77;5.33;;;;;;;8.70;100.00;101095.38;4999989;28;20214;-86
2023/05/24 05:18:44;;;;;;;20.70;5.60;;;;;;;8.74;100.00;101104.03;5001236;28;20211;-87
2023/05/24 05:21:10;;;;;;;18.97;5.90;;;;;;;8.64;100.00;101123.13;5000729;28;20221;-84
2023/05/24 05:23:38;;;;;;;19.53;5.63;;;;;;;8.64;99.85;101143.94;5000349;28;20264;-83
2023/05/24 05:26:06;;;;;;;19.63;6.13;;;;;;;8.76;100.00;101151.78;5000007;28;20233;-88
2023/05/24 05:28:33;;;;;;;14.87;4.87;;;;;;;8.49;100.00;101152.63;5000367;28;20215;-87
2023/05/24 05:30:59;;;;;;;13.30;5.67;;;;;;;8.56;99.85;101143.94;4999213;28;20283;-84
2023/05/24 05:33:26;;;;;;;14.97;5.57;;;;;;;8.47;100.00;101138.75;5000257;28;20257;-84
2023/05/24 05:35:52;;;;;;;23.00;5.93;;;;;;;8.69;100.00;101131.81;5000748;28;20214;-86
2023/05/24 05:41:44;;;;;;;27.50;6.10;;;;;;;8.63;100.00;101140.47;4999264;28;20214;-87
2023/05/24 05:44:11;;;;;;;14.37;6.03;;;;;;;8.78;100.00;101134.44;5000184;28;20213;-82
2023/05/24 05:46:42;;;;;;;19.37;6.30;;;;;;;8.88;98.43;101158.69;5000077;28;20244;-84
2023/05/24 05:49:09;;;;;;;21.97;6.00;;;;;;;8.94;99.10;101158.72;5000431;28;20211;-87
2023/05/24 05:51:37;;;;;;;12.17;5.13;;;;;;;8.92;97.18;101189.09;4999733;28;20293;-84
2023/05/24 05:54:03;;;;;;;13.07;5.30;;;;;;;9.07;97.59;101181.25;5000985;28;20219;-84
2023/05/24 05:56:30;;;;;;;14.93;6.63;;;;;;;9.23;98.24;101183.84;5000173;28;20216;-84
2023/05/24 05:58:58;;;;;;;20.50;6.30;;;;;;;9.33;97.58;101181.22;5000593;28;20214;-87
2023/05/24 06:01:24;;;;;;;12.60;5.23;;;;;;;9.43;96.38;101204.66;4999908;28;20897;-84
2023/05/24 06:03:53;;;;;;;18.63;6.07;;;;;;;9.44;94.39;101240.28;4999325;28;20210;-86
2023/05/24 06:06:20;;;;;;;13.60;5.37;;;;;;;9.47;94.00;101263.72;4999928;28;20216;-85
2023/05/24 06:08:46;;;;;;;17.70;5.77;;;;;;;9.41;93.99;101276.75;4999181;28;20294;-86
2023/05/24 06:11:15;;;;;;;14.00;5.37;;;;;;;9.48;93.87;101274.16;4998180;28;20299;-84
2023/05/24 06:13:41;;;;;;;11.77;5.23;;;;;;;9.60;94.29;101270.66;4998632;28;20575;-83
2023/05/24 06:16:09;;;;;;;15.77;5.17;;;;;;;9.65;93.78;101281.97;4998731;28;20210;-86
2023/05/24 06:18:36;;;;;;;15.40;5.17;;;;;;;9.67;92.84;101293.25;4998862;28;20208;-81
2023/05/24 06:21:02;;;;;;;14.50;5.50;;;;;;;9.62;93.06;101307.16;4998267;28;20237;-84
2023/05/24 06:23:28;;;;;;;18.90;5.27;;;;;;;9.68;92.49;101301.94;4998885;28;20209;-84
2023/05/24 06:25:55;;;;;;;17.37;5.70;;;;;;;9.61;93.44;101308.88;4999294;28;20277;-83
2023/05/24 06:28:22;;;;;;;14.57;4.60;;;;;;;9.69;92.76;101307.16;4999162;28;20267;-84
2023/05/24 06:30:48;;;;;;;14.53;5.10;;;;;;;9.57;91.94;101319.31;4999353;28;20259;-84
2023/05/24 06:33:16;;;;;;;26.87;6.27;;;;;;;9.66;92.65;101320.16;4999332;28;20214;-85
2023/05/24 06:35:42;;;;;;;18.70;5.30;;;;;;;9.61;93.23;101298.44;4998437;28;20265;-82
2023/05/24 06:38:10;;;;;;;12.40;6.03;;;;;;;9.71;92.06;101301.91;4998974;28;20252;-84
2023/05/24 06:40:36;;;;;;;16.90;5.30;;;;;;;9.79;92.30;101323.66;4996876;23;20227;-81
2023/05/24 06:43:03;;;;;;;15.27;6.50;;;;;;;9.80;91.35;101325.38;4979213;28;20215;-81
2023/05/24 06:45:30;;;;;;;18.33;5.50;;;;;;;9.99;91.10;101327.94;4979439;28;20221;-81
2023/05/24 06:47:56;;;;;;;18.43;5.43;;;;;;;10.03;90.97;101330.56;4979607;28;20270;-81
2023/05/24 06:50:24;;;;;;;12.77;4.80;;;;;;;10.12;89.04;101348.78;4978624;28;20692;-82
2023/05/24 06:52:50;;;;;;;14.10;4.60;;;;;;;10.22;87.92;101391.38;4979086;28;20228;-80
2023/05/24 06:55:17;;;;;;;17.87;5.50;;;;;;;10.20;88.20;101395.72;4979141;28;20672;-80
2023/05/24 06:57:43;;;;;;;18.07;5.13;;;;;;;10.24;89.04;101399.19;4978139;28;20681;-80
2023/05/24 07:00:11;;;;;;;17.43;4.87;;;;;;;10.31;88.76;101403.56;4979315;28;20267;-79
2023/05/24 07:02:37;;;;;;;15.13;5.43;;;;;;;10.23;87.00;101431.41;4979043;28;20249;-79
2023/05/24 07:05:05;;;;;;;13.70;5.17;;;;;;;10.10;87.28;101454.00;4978162;28;20586;-80
2023/05/24 07:07:32;;;;;;;12.93;5.47;;;;;;;10.17;86.94;101457.47;4977929;28;20206;-79
2023/05/24 07:09:59;;;;;;;11.53;5.40;;;;;;;10.35;87.97;101452.28;4975997;28;20196;-79
2023/05/24 07:12:25;;;;;;;22.87;5.27;;;;;;;10.49;87.78;101444.44;4978178;28;20243;-80
2023/05/24 07:14:52;;;;;;;16.77;4.40;;;;;;;10.43;85.31;101463.56;4977787;28;20208;-79
2023/05/24 07:17:18;;;;;;;16.50;5.83;;;;;;;10.47;85.41;101473.13;4978192;28;20265;-80
2023/05/24 07:19:44;;;;;;;19.63;5.90;;;;;;;10.46;85.63;101494.00;4977603;28;20286;-80
2023/05/24 07:22:11;;;;;;;15.00;5.77;;;;;;;10.57;85.71;101471.38;4977183;28;20205;-81
2023/05/24 07:24:39;;;;;;;16.43;5.67;;;;;;;10.57;86.06;101471.38;4977671;28;20591;-81
2023/05/24 07:27:05;;;;;;;19.93;6.13;;;;;;;10.56;85.27;101474.84;4978125;28;20196;-80
2023/05/24 07:29:31;;;;;;;10.37;4.70;;;;;;;10.60;84.25;101507.03;4977870;28;20222;-80
2023/05/24 07:31:59;;;;;;;21.10;6.17;;;;;;;10.74;86.09;101481.75;4978294;28;20699;-81
2023/05/24 07:34:26;;;;;;;14.63;4.97;;;;;;;10.48;85.12;101497.50;4977867;28;20200;-81
2023/05/24 07:36:53;;;;;;;12.77;5.77;;;;;;;10.41;85.48;101499.25;4978270;28;20202;-79
2023/05/24 07:39:19;;;;;;;13.43;4.80;;;;;;;10.45;85.50;101495.75;4978388;28;20224;-80
2023/05/24 07:41:47;;;;;;;18.60;5.57;;;;;;;10.48;84.67;101508.78;4978080;28;20277;-81
2023/05/24 07:44:13;;;;;;;14.33;4.40;;;;;;;10.53;84.70;101514.88;4977927;28;20249;-80
2023/05/24 07:46:40;;;;;;;10.43;4.47;;;;;;;10.67;82.33;101535.75;4977485;28;20208;-81
2023/05/24 07:49:06;;;;;;;16.30;4.93;;;;;;;10.73;80.93;101566.22;4978982;28;20255;-81
2023/05/24 07:51:33;;;;;;;17.40;4.87;;;;;;;10.74;80.81;101586.22;4979559;28;20238;-79
2023/05/24 07:53:59;;;;;;;20.10;5.20;;;;;;;10.91;81.92;101586.22;4980746;28;20277;-80
2023/05/24 07:56:26;;;;;;;12.07;4.70;;;;;;;10.87;84.53;101547.91;4980405;28;20212;-80
2023/05/24 07:58:58;;;;;;;16.60;4.90;;;;;;;10.93;83.84;101532.22;4978404;28;20262;-80
2023/05/24 08:01:24;;;;;;;15.23;5.30;;;;;;;10.82;83.87;101541.81;4978806;28;20227;-81
2023/05/24 08:03:51;;;;;;;15.37;5.87;;;;;;;10.59;83.72;101537.50;4977653;28;20266;-80
2023/05/24 08:06:18;;;;;;;13.00;6.17;;;;;;;10.69;84.16;101525.31;4978841;28;20288;-80
2023/05/24 08:08:44;;;;;;;17.10;5.30;;;;;;;10.79;84.85;101508.75;4979020;28;20235;-80
2023/05/24 08:11:11;;;;;;;14.73;5.57;;;;;;;10.78;83.83;101516.56;4978416;28;20216;-81
2023/05/24 08:13:37;;;;;;;11.50;4.00;;;;;;;10.91;82.40;101533.97;4978832;28;20727;-80
2023/05/24 08:16:05;;;;;;;13.57;5.07;;;;;;;10.93;82.36;101553.97;4978365;28;20210;-79
2023/05/24 08:18:32;;;;;;;17.47;5.97;;;;;;;10.90;81.42;101566.16;4977880;28;20231;-80
2023/05/24 08:20:58;;;;;;;14.63;4.87;;;;;;;11.04;81.25;101584.44;4978601;28;20216;-80
2023/05/24 08:23:25;;;;;;;10.43;4.97;;;;;;;10.90;82.70;101574.00;4978661;28;20636;-80
2023/05/24 08:25:52;;;;;;;10.50;4.43;;;;;;;10.76;82.54;101567.94;4978612;28;20208;-80
2023/05/24 08:28:18;;;;;;;11.03;4.97;;;;;;;10.68;82.25;101575.78;4978164;28;20291;-80
2023/05/24 08:30:45;;;;;;;12.93;5.40;;;;;;;10.73;83.01;101551.41;4978806;28;20211;-79
2023/05/24 08:33:13;;;;;;;16.60;5.27;;;;;;;10.83;84.21;101531.38;4979219;28;20723;-80
2023/05/24 08:35:39;;;;;;;14.63;5.97;;;;;;;10.79;85.63;101506.13;4981984;28;20197;-80
2023/05/24 08:38:06;;;;;;;15.47;5.50;;;;;;;10.97;84.58;101496.50;4982046;28;20568;-81
2023/05/24 08:40:33;;;;;;;14.47;5.63;;;;;;;10.80;82.76;101505.28;4982466;28;20219;-81
2023/05/24 08:43:01;;;;;;;11.77;5.37;;;;;;;10.61;84.11;101519.25;4979482;28;20245;-80
2023/05/24 08:45:30;;;;;;;10.67;5.53;;;;;;;10.62;88.51;101463.53;4981963;28;20670;-79
2023/05/24 08:47:58;;;;;;;20.97;6.30;;;;;;;10.68;92.95;101352.13;4981532;28;20732;-80
2023/05/24 08:50:26;;;;;;;14.17;5.50;;;;;;;10.77;96.65;101264.16;4982897;28;20202;-80
2023/05/24 08:52:54;;;;;;;11.90;6.10;;;;;;;10.77;98.74;101198.84;4982566;28;20471;-81
2023/05/24 08:55:21;;;;;;;13.93;6.17;;;;;;;10.53;100.00;101172.91;4979543;28;20618;-80
2023/05/24 08:57:48;;;;;;;12.03;6.03;;;;;;;10.41;100.00;101144.28;4981786;28;20384;-80
2023/05/24 09:00:16;;;;;;;13.60;6.17;;;;;;;10.50;100.00;101114.63;4979581;28;20208;-80
2023/05/24 09:02:45;;;;;;;14.67;5.60;;;;;;;10.48;100.00;101119.00;4983342;28;20207;-81
2023/05/24 09:05:15;;;;;;;12.07;5.50;;;;;;;10.23;100.00;101128.72;4983817;28;20211;-80
2023/05/24 09:07:44;;;;;;;15.77;6.30;;;;;;;10.06;100.00;101107.94;4981892;28;20215;-80
2023/05/24 09:10:11;;;;;;;12.27;6.27;;;;;;;10.10;100.00;101122.72;4982151;28;20265;-80
2023/05/24 09:12:40;;;;;;;13.83;6.20;;;;;;;10.11;100.00;101145.31;4982275;28;20261;-80
2023/05/24 09:15:08;;;;;;;12.93;6.07;;;;;;;10.10;100.00;101120.94;4982243;28;20217;-81
2023/05/24 09:17:36;;;;;;;14.17;6.90;;;;;;;10.05;100.00;101109.69;4981895;28;20211;-80
2023/05/24 09:20:05;;;;;;;13.43;6.33;;;;;;;9.99;100.00;101107.13;4981809;28;20578;-81
2023/05/24 09:22:32;;;;;;;19.47;6.10;;;;;;;10.14;100.00;101093.97;4980737;28;20272;-82
2023/05/24 09:25:01;;;;;;;19.00;7.40;;;;;;;10.33;100.00;101104.34;4979377;28;20204;-80
2023/05/24 09:27:28;;;;;;;11.53;5.60;;;;;;;10.30;100.00;101109.56;4978637;28;20215;-83
2023/05/24 09:29:55;;;;;;;11.93;5.60;;;;;;;10.21;100.00;101120.91;4979201;28;20211;-79
2023/05/24 09:32:23;;;;;;;9.90;6.07;;;;;;;9.96;100.00;101116.72;4981227;28;20272;-80
2023/05/24 09:34:52;;;;;;;14.23;5.63;;;;;;;10.00;100.00;101111.47;4981328;28;20205;-82
2023/05/24 09:37:20;;;;;;;13.17;5.73;;;;;;;9.80;100.00;101090.72;4979447;28;20294;-82
2023/05/24 09:39:49;;;;;;;11.00;5.93;;;;;;;9.94;100.00;101091.50;4980208;28;20783;-80
2023/05/24 09:42:19;;;;;;;14.27;5.70;;;;;;;10.07;100.00;101096.66;4979804;28;20253;-82
2023/05/24 09:44:46;;;;;;;12.60;5.40;;;;;;;10.21;100.00;101101.75;4979396;28;20699;-82
2023/05/24 09:47:13;;;;;;;14.60;6.43;;;;;;;10.27;100.00;101131.31;4979680;28;20203;-82
2023/05/24 09:49:43;;;;;;;10.73;5.03;;;;;;;10.25;100.00;101153.94;4979291;28;20231;-83
2023/05/24 09:52:13;;;;;;;15.80;6.40;;;;;;;10.32;100.00;101152.16;4980246;28;20313;-83
2023/05/24 09:54:40;;;;;;;10.77;5.40;;;;;;;10.42;100.00;101163.41;4978308;28;20207;-82
2023/05/24 09:57:07;;;;;;;13.23;6.10;;;;;;;10.38;100.00;101174.75;4978820;28;20210;-81
2023/05/24 09:59:35;;;;;;;9.47;5.13;;;;;;;10.47;100.00;101170.34;4981061;28;20285;-81
2023/05/24 10:02:10;;;;;;;12.03;5.23;;;;;;;10.75;100.00;101185.81;4981333;28;20301;-81
2023/05/24 10:04:36;;;;;;;11.53;5.33;;;;;;;10.83;99.45;101199.66;4980853;28;20215;-81
2023/05/24 10:07:04;;;;;;;10.57;5.37;;;;;;;10.97;98.80;101210.00;4981251;28;20208;-81
2023/05/24 10:09:33;;;;;;;5.37;4.30;;;;;;;10.60;97.97;101236.38;4980814;28;20226;-80
2023/05/24 10:12:03;;;;;;;10.60;5.43;;;;;;;10.68;97.64;101236.31;4981199;28;20239;-81
2023/05/24 10:14:32;;;;;;;11.80;5.37;;;;;;;10.58;98.41;101245.09;4981327;28;20208;-81
2023/05/24 10:17:00;;;;;;;7.97;5.67;;;;;;;10.18;98.69;101227.88;4975038;28;20301;-79
2023/05/24 10:19:26;;;;;;;11.53;6.10;;;;;;;10.42;99.79;101219.09;4984370;28;20308;-79
2023/05/24 10:21:55;;;;;;;16.03;6.20;;;;;;;10.57;100.00;101199.00;4983825;28;20283;-79
2023/05/24 10:24:25;;;;;;;13.03;6.53;;;;;;;10.66;100.00;101191.97;4983141;28;20677;-79
2023/05/24 10:26:54;;;;;;;13.57;6.60;;;;;;;10.79;99.99;101195.34;4983177;28;20291;-79
2023/05/24 10:29:32;;;;;;;19.90;7.50;;;;;;;10.45;100.00;101215.63;4983879;28;20710;-79
2023/05/24 10:32:01;;;;;;;18.13;7.27;;;;;;;10.51;100.00;101192.06;4989670;23;20235;-75
2023/05/24 10:34:29;;;;;;;11.67;6.33;;;;;;;10.61;100.00;101192.88;4974006;28;20622;-76
2023/05/24 10:36:57;;;;;;;17.70;6.90;;;;;;;10.78;99.60;101214.50;4973892;28;20307;-75
2023/05/24 10:39:25;;;;;;;13.83;6.57;;;;;;;10.87;97.29;101239.69;4973918;28;20790;-76
2023/05/24 10:41:52;;;;;;;16.17;7.60;;;;;;;11.01;96.71;101257.88;4973317;28;20261;-76
2023/05/24 10:44:19;;;;;;;14.83;7.03;;;;;;;11.05;96.49;101277.88;4974639;28;20254;-75
2023/05/24 10:47:11;;;;;;;9.53;6.57;;;;;;;10.82;96.48;101281.53;4974351;28;20257;-75
2023/05/24 10:49:38;;;;;;;12.97;6.90;;;;;;;10.69;97.72;101272.88;4973736;28;20229;-76
2023/05/24 10:52:08;;;;;;;14.73;6.27;;;;;;;10.80;97.07;101285.91;4973867;28;20680;-75
2023/05/24 10:54:37;;;;;;;13.97;7.27;;;;;;;10.80;97.26;101278.06;4974243;28;20214;-76
2023/05/24 10:57:04;;;;;;;12.83;6.77;;;;;;;10.67;97.34;101277.25;4973189;28;20690;-76
2023/05/24 10:59:36;;;;;;;13.70;6.67;;;;;;;10.66;99.14;101249.41;4973475;28;20215;-75
2023/05/24 11:02:04;;;;;;;14.03;6.83;;;;;;;10.73;97.71;101258.94;4970901;28;20305;-76
2023/05/24 11:04:36;;;;;;;10.90;5.97;;;;;;;10.73;98.36;101261.53;4973610;28;20200;-76
2023/05/24 11:07:04;;;;;;;18.67;7.90;;;;;;;10.63;97.75;101265.09;4973865;28;20212;-76
2023/05/24 11:09:32;;;;;;;19.53;8.70;;;;;;;10.75;98.64;101252.84;4973791;28;20267;-76
2023/05/24 11:12:02;;;;;;;15.23;7.07;;;;;;;10.86;97.12;101270.19;4973687;28;20215;-75
2023/05/24 11:14:30;;;;;;;19.70;8.30;;;;;;;10.69;98.05;101278.09;4973265;28;20264;-76
2023/05/24 11:16:58;;;;;;;11.77;7.80;;;;;;;10.61;100.00;101248.56;4973649;28;20214;-77
2023/05/24 11:19:30;;;;;;;13.17;7.87;;;;;;;10.79;100.00;101210.16;4973455;28;20693;-76
2023/05/24 11:22:00;;;;;;;14.37;8.40;;;;;;;10.75;100.00;101149.25;4973705;28;20215;-76
2023/05/24 11:24:27;;;;;;;17.43;9.83;;;;;;;10.49;100.00;101092.88;4973524;28;20257;-75